createdAt,value
2022-09-11T00:01:02.457Z,15.10
2022-09-11T00:03:32.974Z,15.10
2022-09-11T00:06:12.459Z,15.10
2022-09-11T00:08:42.653Z,15.10
2022-09-11T00:11:27.473Z,15.00
2022-09-11T00:13:58.996Z,15.00
2022-09-11T00:16:35.652Z,15.00
2022-09-11T00:19:09.906Z,15.00
2022-09-11T00:21:46.420Z,15.00
2022-09-11T00:24:15.110Z,15.00
2022-09-11T00:26:50.463Z,14.90
2022-09-11T00:29:19.981Z,15.00
2022-09-11T00:31:57.977Z,14.90
2022-09-11T00:34:26.481Z,14.90
2022-09-11T00:37:02.500Z,14.90
2022-09-11T00:39:30.889Z,14.90
2022-09-11T00:42:06.182Z,14.90
2022-09-11T00:45:04.682Z,14.90
2022-09-11T00:47:40.584Z,14.90
2022-09-11T00:50:13.537Z,14.90
2022-09-11T00:52:57.528Z,14.90
2022-09-11T00:55:28.982Z,14.90
2022-09-11T00:58:07.494Z,14.80
2022-09-11T01:00:37.242Z,14.80
2022-09-11T01:03:12.650Z,14.80
2022-09-11T01:05:43.996Z,14.80
2022-09-11T01:08:21.669Z,14.70
2022-09-11T01:11:10.165Z,14.80
2022-09-11T01:13:59.446Z,14.70
2022-09-11T01:16:36.365Z,14.70
2022-09-11T01:19:22.712Z,14.70
2022-09-11T01:22:13.027Z,14.70
2022-09-11T01:25:05.912Z,14.70
2022-09-11T01:27:43.057Z,14.60
2022-09-11T01:30:21.650Z,14.70
2022-09-11T01:33:07.664Z,14.60
2022-09-11T01:35:52.706Z,14.60
2022-09-11T01:38:27.476Z,14.60
2022-09-11T01:41:08.656Z,14.60
2022-09-11T01:43:42.139Z,14.50
2022-09-11T01:46:17.618Z,14.50
2022-09-11T01:48:50.352Z,14.50
2022-09-11T01:51:30.689Z,14.50
2022-09-11T01:54:03.790Z,14.50
2022-09-11T01:56:44.630Z,14.50
2022-09-11T01:59:18.795Z,14.50
2022-09-11T02:01:59.706Z,14.40
2022-09-11T02:04:31.656Z,14.40
2022-09-11T02:07:10.709Z,14.40
2022-09-11T02:10:01.593Z,14.40
2022-09-11T02:12:54.599Z,14.40
2022-09-11T02:15:27.289Z,14.40
2022-09-11T02:18:08.831Z,14.50
2022-09-11T02:20:37.392Z,14.50
2022-09-11T02:23:13.610Z,14.60
2022-09-11T02:25:42.593Z,14.60
2022-09-11T02:28:17.533Z,14.60
2022-09-11T02:30:47.316Z,14.60
2022-09-11T02:33:38.665Z,14.60
2022-09-11T02:36:26.675Z,14.60
2022-09-11T02:39:15.715Z,14.60
2022-09-11T02:41:59.759Z,14.70
2022-09-11T02:44:38.366Z,14.70
2022-09-11T02:47:23.745Z,14.60
2022-09-11T02:50:01.137Z,14.60
2022-09-11T02:52:50.600Z,14.60
2022-09-11T02:55:24.755Z,14.60
2022-09-11T02:58:06.751Z,14.60
2022-09-11T03:00:35.623Z,14.60
2022-09-11T03:03:05.920Z,14.60
2022-09-11T03:05:43.674Z,14.50
2022-09-11T03:08:17.141Z,14.50
2022-09-11T03:10:53.804Z,14.50
2022-09-11T03:13:29.137Z,14.50
2022-09-11T03:16:03.835Z,14.50
2022-09-11T03:18:34.375Z,14.40
2022-09-11T03:21:11.782Z,14.40
2022-09-11T03:23:40.734Z,14.30
2022-09-11T03:26:15.861Z,14.30
2022-09-11T03:28:52.589Z,14.30
2022-09-11T03:31:21.821Z,14.30
2022-09-11T03:33:58.761Z,14.40
2022-09-11T03:36:27.223Z,14.40
2022-09-11T03:39:03.845Z,14.40
2022-09-11T03:41:32.928Z,14.40
2022-09-11T03:44:07.589Z,14.40
2022-09-11T03:46:36.222Z,14.40
2022-09-11T03:49:12.710Z,14.50
2022-09-11T03:51:41.159Z,14.50
2022-09-11T03:54:16.804Z,14.50
2022-09-11T03:56:45.271Z,14.50
2022-09-11T03:59:20.816Z,14.50
2022-09-11T04:01:50.315Z,14.50
2022-09-11T04:04:27.693Z,14.50
2022-09-11T04:06:56.470Z,14.50
2022-09-11T04:09:31.695Z,14.50
2022-09-11T04:12:08.252Z,14.50
2022-09-11T04:14:43.704Z,14.50
2022-09-11T04:17:12.682Z,14.50
2022-09-11T04:19:49.818Z,14.50
2022-09-11T04:22:21.268Z,14.50
2022-09-11T04:24:56.691Z,14.40
2022-09-11T04:27:27.272Z,14.40
2022-09-11T04:30:01.627Z,14.40
2022-09-11T04:32:30.440Z,14.40
2022-09-11T04:35:09.671Z,14.40
2022-09-11T04:37:38.053Z,14.40
2022-09-11T04:40:13.796Z,14.50
2022-09-11T04:42:42.227Z,14.50
2022-09-11T04:45:17.840Z,14.40
2022-09-11T04:47:46.460Z,14.50
2022-09-11T04:50:22.754Z,14.40
2022-09-11T04:52:51.391Z,14.50
2022-09-11T04:55:26.857Z,14.40
2022-09-11T04:57:55.481Z,14.40
2022-09-11T05:00:31.754Z,14.40
2022-09-11T05:03:00.172Z,14.40
2022-09-11T05:05:36.758Z,14.40
2022-09-11T05:08:05.980Z,14.40
2022-09-11T05:10:45.867Z,14.40
2022-09-11T05:13:15.216Z,14.40
2022-09-11T05:15:50.716Z,14.40
2022-09-11T05:18:19.370Z,14.40
2022-09-11T05:20:55.840Z,14.30
2022-09-11T05:23:24.324Z,14.30
2022-09-11T05:25:59.745Z,14.30
2022-09-11T05:28:29.602Z,14.30
2022-09-11T05:31:05.845Z,14.30
2022-09-11T05:33:34.247Z,14.30
2022-09-11T05:36:13.716Z,14.30
2022-09-11T05:38:43.160Z,14.20
2022-09-11T05:41:20.902Z,14.20
2022-09-11T05:43:49.776Z,14.20
2022-09-11T05:46:25.870Z,14.20
2022-09-11T05:48:54.555Z,14.20
2022-09-11T05:51:30.709Z,14.30
2022-09-11T05:53:59.097Z,14.30
2022-09-11T05:56:34.928Z,14.40
2022-09-11T05:59:03.881Z,14.50
2022-09-11T06:01:38.957Z,14.50
2022-09-11T06:04:12.235Z,14.60
2022-09-11T06:06:48.899Z,14.60
2022-09-11T06:09:17.246Z,14.60
2022-09-11T06:11:59.837Z,14.60
2022-09-11T06:14:35.193Z,14.60
2022-09-11T06:17:09.947Z,14.60
2022-09-11T06:19:38.311Z,14.70
2022-09-11T06:22:14.751Z,14.70
2022-09-11T06:24:43.639Z,14.70
2022-09-11T06:27:18.928Z,14.80
2022-09-11T06:29:47.721Z,14.80
2022-09-11T06:32:22.779Z,14.80
2022-09-11T06:34:51.411Z,14.90
2022-09-11T06:37:27.970Z,14.90
2022-09-11T06:39:56.848Z,15.00
2022-09-11T06:42:32.813Z,15.00
2022-09-11T06:45:02.695Z,15.00
2022-09-11T06:47:37.811Z,15.10
2022-09-11T06:50:07.250Z,15.10
2022-09-11T06:52:43.933Z,15.20
2022-09-11T06:55:14.742Z,15.20
2022-09-11T06:57:49.967Z,15.20
2022-09-11T07:00:18.855Z,15.20
2022-09-11T07:02:54.003Z,15.10
2022-09-11T07:05:23.375Z,15.20
2022-09-11T07:08:00.799Z,15.20
2022-09-11T07:10:35.132Z,15.30
2022-09-11T07:13:17.024Z,15.30
2022-09-11T07:15:46.145Z,15.40
2022-09-11T07:18:20.813Z,15.40
2022-09-11T07:20:49.316Z,15.40
2022-09-11T07:23:25.971Z,15.40
2022-09-11T07:25:54.631Z,15.40
2022-09-11T07:28:30.034Z,15.50
2022-09-11T07:31:06.114Z,15.50
2022-09-11T07:33:41.074Z,15.60
2022-09-11T07:36:12.091Z,15.70
2022-09-11T07:38:49.825Z,15.70
2022-09-11T07:41:20.717Z,15.70
2022-09-11T07:43:55.987Z,15.80
2022-09-11T07:46:26.926Z,15.90
2022-09-11T07:49:02.907Z,16.00
2022-09-11T07:51:31.525Z,16.10
2022-09-11T07:54:07.953Z,16.20
2022-09-11T07:56:36.865Z,16.30
2022-09-11T07:59:15.924Z,16.50
2022-09-11T08:01:44.747Z,16.50
2022-09-11T08:04:21.892Z,16.60
2022-09-11T08:06:50.975Z,16.50
2022-09-11T08:09:26.930Z,16.50
2022-09-11T08:12:02.873Z,16.50
2022-09-11T08:14:37.863Z,16.50
2022-09-11T08:17:06.457Z,16.60
2022-09-11T08:19:41.878Z,16.50
2022-09-11T08:22:12.361Z,16.50
2022-09-11T08:24:48.943Z,16.50
2022-09-11T08:27:17.338Z,16.50
2022-09-11T08:29:52.934Z,16.50
2022-09-11T08:32:21.559Z,16.50
2022-09-11T08:34:56.041Z,16.60
2022-09-11T08:37:24.627Z,16.70
2022-09-11T08:40:01.058Z,16.80
2022-09-11T08:42:29.744Z,17.00
2022-09-11T08:45:06.958Z,17.20
2022-09-11T08:47:38.108Z,17.30
2022-09-11T08:50:17.929Z,17.40
2022-09-11T08:52:46.459Z,17.60
2022-09-11T08:55:24.957Z,17.80
2022-09-11T08:58:00.836Z,17.90
2022-09-11T09:00:40.897Z,18.00
2022-09-11T09:03:26.441Z,18.20
2022-09-11T09:06:06.058Z,18.30
2022-09-11T09:08:50.363Z,18.40
2022-09-11T09:11:43.962Z,18.50
2022-09-11T09:14:34.478Z,18.60
2022-09-11T09:17:12.960Z,18.60
2022-09-11T09:19:47.774Z,18.70
2022-09-11T09:22:28.914Z,18.80
2022-09-11T09:25:02.104Z,19.00
2022-09-11T09:27:43.114Z,19.20
2022-09-11T09:30:16.965Z,19.40
2022-09-11T09:32:57.134Z,19.70
2022-09-11T09:35:30.673Z,19.80
2022-09-11T09:38:05.943Z,19.80
2022-09-11T09:40:37.035Z,19.80
2022-09-11T09:43:35.987Z,19.90
2022-09-11T09:46:13.916Z,20.00
2022-09-11T09:48:49.945Z,20.00
2022-09-11T09:51:18.824Z,20.10
2022-09-11T09:53:58.002Z,20.20
2022-09-11T09:56:27.325Z,20.00
2022-09-11T09:59:09.209Z,19.90
2022-09-11T10:01:50.263Z,19.70
2022-09-11T10:04:30.242Z,19.50
2022-09-11T10:07:10.697Z,19.50
2022-09-11T10:09:52.990Z,19.70
2022-09-11T10:12:43.009Z,19.90
2022-09-11T10:15:29.148Z,20.20
2022-09-11T10:18:25.652Z,20.40
2022-09-11T10:21:21.133Z,20.40
2022-09-11T10:23:51.841Z,20.40
2022-09-11T10:26:32.038Z,20.60
2022-09-11T10:29:10.325Z,20.70
2022-09-11T10:31:57.711Z,20.80
2022-09-11T10:34:28.976Z,20.60
2022-09-11T10:37:08.031Z,20.70
2022-09-11T10:39:38.482Z,20.80
2022-09-11T10:42:23.188Z,20.90
2022-09-11T10:44:53.925Z,20.70
2022-09-11T10:47:37.018Z,20.40
2022-09-11T10:50:24.133Z,20.10
2022-09-11T10:53:11.170Z,19.70
2022-09-11T10:55:44.943Z,19.60
2022-09-11T10:58:24.177Z,19.60
2022-09-11T11:00:55.564Z,19.90
2022-09-11T11:03:33.018Z,20.20
2022-09-11T11:06:11.929Z,20.70
2022-09-11T11:09:17.032Z,21.40
2022-09-11T11:12:18.052Z,21.80
2022-09-11T11:15:20.094Z,21.90
2022-09-11T11:17:56.718Z,21.90
2022-09-11T11:20:42.067Z,21.90
2022-09-11T11:23:32.239Z,21.90
2022-09-11T11:26:26.029Z,21.80
2022-09-11T11:29:09.350Z,21.70
2022-09-11T11:31:54.037Z,21.60
2022-09-11T11:34:38.781Z,21.60
2022-09-11T11:37:22.252Z,21.30
2022-09-11T11:39:57.828Z,21.30
2022-09-11T11:42:36.146Z,21.40
2022-09-11T11:45:10.367Z,21.50
2022-09-11T11:47:50.156Z,21.60
2022-09-11T11:50:31.587Z,21.70
2022-09-11T11:53:20.166Z,22.10
2022-09-11T11:55:58.039Z,22.70
2022-09-11T11:58:47.102Z,23.00
2022-09-11T12:01:22.494Z,23.60
2022-09-11T12:04:05.118Z,24.00
2022-09-11T12:06:33.602Z,24.20
2022-09-11T12:09:12.305Z,24.60
2022-09-11T12:11:51.270Z,24.80
2022-09-11T12:14:35.135Z,25.00
2022-09-11T12:17:21.340Z,25.10
2022-09-11T12:20:22.149Z,24.90
2022-09-11T12:22:58.163Z,24.80
2022-09-11T12:26:00.399Z,24.70
2022-09-11T12:28:37.119Z,24.90
2022-09-11T12:31:07.670Z,24.90
2022-09-11T12:34:06.273Z,25.10
2022-09-11T12:36:48.945Z,25.50
2022-09-11T12:39:33.334Z,25.80
2022-09-11T12:42:43.616Z,25.70
2022-09-11T12:45:42.007Z,25.60
2022-09-11T12:48:14.153Z,25.40
2022-09-11T12:50:58.317Z,25.10
2022-09-11T12:53:31.270Z,24.90
2022-09-11T12:56:09.142Z,24.60
2022-09-11T12:58:40.692Z,24.10
2022-09-11T13:01:34.467Z,23.80
2022-09-11T13:04:13.466Z,23.70
2022-09-11T13:06:52.302Z,24.00
2022-09-11T13:09:27.987Z,24.20
2022-09-11T13:12:05.250Z,24.30
2022-09-11T13:14:57.573Z,24.50
2022-09-11T13:17:37.214Z,24.20
2022-09-11T13:20:24.686Z,24.20
2022-09-11T13:23:00.136Z,24.10
2022-09-11T13:25:31.417Z,23.90
2022-09-11T13:28:09.352Z,23.60
2022-09-11T13:31:09.525Z,23.50
2022-09-11T13:33:48.213Z,23.50
2022-09-11T13:36:18.307Z,23.50
2022-09-11T13:38:58.224Z,23.70
2022-09-11T13:41:30.055Z,23.80
2022-09-11T13:44:07.342Z,23.70
2022-09-11T13:46:35.817Z,23.60
2022-09-11T13:49:41.564Z,23.60
2022-09-11T13:52:14.115Z,23.90
2022-09-11T13:54:53.263Z,24.10
2022-09-11T13:57:23.460Z,24.20
2022-09-11T14:00:01.346Z,24.30
2022-09-11T14:02:40.904Z,24.30
2022-09-11T14:05:24.391Z,24.40
2022-09-11T14:08:02.096Z,24.60
2022-09-11T14:10:40.280Z,24.70
2022-09-11T14:13:20.015Z,24.80
2022-09-11T14:16:00.415Z,24.80
2022-09-11T14:18:33.338Z,24.80
2022-09-11T14:21:12.363Z,24.90
2022-09-11T14:23:45.818Z,24.80
2022-09-11T14:26:24.305Z,24.70
2022-09-11T14:29:05.353Z,24.70
2022-09-11T14:31:43.397Z,24.60
2022-09-11T14:34:18.279Z,24.40
2022-09-11T14:37:01.413Z,24.20
2022-09-11T14:39:35.155Z,24.00
2022-09-11T14:42:12.407Z,24.00
2022-09-11T14:44:43.961Z,23.90
2022-09-11T14:47:23.419Z,23.80
2022-09-11T14:49:54.792Z,23.80
2022-09-11T14:52:33.552Z,23.60
2022-09-11T14:55:02.333Z,23.60
2022-09-11T14:57:42.499Z,23.60
2022-09-11T15:00:15.310Z,23.60
2022-09-11T15:02:50.463Z,23.60
2022-09-11T15:05:23.306Z,23.50
2022-09-11T15:08:00.481Z,23.50
2022-09-11T15:10:29.523Z,23.50
2022-09-11T15:13:05.372Z,23.50
2022-09-11T15:15:35.531Z,23.50
2022-09-11T15:18:11.505Z,23.50
2022-09-11T15:20:40.089Z,23.50
2022-09-11T15:23:17.580Z,23.40
2022-09-11T15:25:52.311Z,23.40
2022-09-11T15:28:21.048Z,23.30
2022-09-11T15:31:06.213Z,23.30
2022-09-11T15:33:34.824Z,23.30
2022-09-11T15:36:11.290Z,23.30
2022-09-11T15:38:42.147Z,23.30
2022-09-11T15:41:17.316Z,23.30
2022-09-11T15:43:46.226Z,23.30
2022-09-11T15:46:21.290Z,23.20
2022-09-11T15:48:49.990Z,23.20
2022-09-11T15:51:26.493Z,23.10
2022-09-11T15:54:00.411Z,23.00
2022-09-11T15:56:35.299Z,23.00
2022-09-11T15:59:03.691Z,22.90
2022-09-11T16:01:41.453Z,22.90
2022-09-11T16:04:12.146Z,22.80
2022-09-11T16:06:50.349Z,22.80
2022-09-11T16:09:23.263Z,22.80
2022-09-11T16:12:01.335Z,22.80
2022-09-11T16:14:38.532Z,22.70
2022-09-11T16:17:15.442Z,22.70
2022-09-11T16:19:43.896Z,22.70
2022-09-11T16:22:19.344Z,22.70
2022-09-11T16:24:49.588Z,22.70
2022-09-11T16:27:24.567Z,22.60
2022-09-11T16:32:48.410Z,22.50
2022-09-11T16:35:19.213Z,22.40
2022-09-11T16:37:55.383Z,22.30
2022-09-11T16:40:25.757Z,22.30
2022-09-11T16:43:03.547Z,22.20
2022-09-11T16:45:32.764Z,22.20
2022-09-11T16:48:07.600Z,22.10
2022-09-11T16:50:36.201Z,22.10
2022-09-11T16:53:11.362Z,22.00
2022-09-11T16:55:42.367Z,21.90
2022-09-11T16:58:17.567Z,21.90
2022-09-11T17:00:46.150Z,21.80
2022-09-11T17:03:21.387Z,21.80
2022-09-11T17:05:53.268Z,21.70
2022-09-11T17:08:28.487Z,21.70
2022-09-11T17:11:00.774Z,21.60
2022-09-11T17:13:42.459Z,21.50
2022-09-11T17:16:16.363Z,21.50
2022-09-11T17:18:54.471Z,21.40
2022-09-11T17:21:24.411Z,21.30
2022-09-11T17:24:01.577Z,21.30
2022-09-11T17:26:32.315Z,21.30
2022-09-11T17:29:09.374Z,21.20
2022-09-11T17:31:37.774Z,21.10
2022-09-11T17:34:15.466Z,21.10
2022-09-11T17:36:44.237Z,21.00
2022-09-11T17:39:19.398Z,20.90
2022-09-11T17:41:49.415Z,20.90
2022-09-11T17:44:24.589Z,20.80
2022-09-11T17:46:53.553Z,20.70
2022-09-11T17:49:28.579Z,20.60
2022-09-11T17:51:58.103Z,20.50
2022-09-11T17:54:33.423Z,20.50
2022-09-11T17:57:03.363Z,20.50
2022-09-11T17:59:38.489Z,20.40
2022-09-11T18:02:07.137Z,20.30
2022-09-11T18:04:42.513Z,20.20
2022-09-11T18:07:10.872Z,20.10
2022-09-11T18:10:00.436Z,20.10
2022-09-11T18:12:50.642Z,20.00
2022-09-11T18:15:25.606Z,19.80
2022-09-11T18:17:54.317Z,19.80
2022-09-11T18:20:30.471Z,19.70
2022-09-11T18:22:59.757Z,19.60
2022-09-11T18:25:34.513Z,19.60
2022-09-11T18:28:11.611Z,19.50
2022-09-11T18:30:41.707Z,19.40
2022-09-11T18:33:17.487Z,19.30
2022-09-11T18:35:46.754Z,19.20
2022-09-11T18:38:21.780Z,19.10
2022-09-11T18:40:56.974Z,19.00
2022-09-11T18:43:33.662Z,18.90
2022-09-11T18:46:03.988Z,18.90
2022-09-11T18:48:39.449Z,18.80
2022-09-11T18:51:08.292Z,18.70
2022-09-11T18:53:43.545Z,18.70
2022-09-11T18:56:13.394Z,18.60
2022-09-11T18:58:50.493Z,18.60
2022-09-11T19:01:20.968Z,18.50
2022-09-11T19:03:56.655Z,18.50
2022-09-11T19:06:27.818Z,18.40
2022-09-11T19:09:04.704Z,18.30
2022-09-11T19:11:34.863Z,18.30
2022-09-11T19:14:26.003Z,18.30
2022-09-11T19:17:01.596Z,18.30
2022-09-11T19:19:36.672Z,18.30
2022-09-11T19:22:05.197Z,18.30
2022-09-11T19:24:40.727Z,18.30
2022-09-11T19:27:08.932Z,18.30
2022-09-11T19:29:45.623Z,18.30
2022-09-11T19:32:14.826Z,18.30
2022-09-11T19:34:51.628Z,18.20
2022-09-11T19:37:23.540Z,18.20
2022-09-11T19:40:01.574Z,18.20
2022-09-11T19:42:33.240Z,18.10
2022-09-11T19:45:09.687Z,18.10
2022-09-11T19:47:38.269Z,18.00
2022-09-11T19:50:15.524Z,18.00
2022-09-11T19:52:44.124Z,17.90
2022-09-11T19:55:19.604Z,17.90
2022-09-11T19:57:47.967Z,17.80
2022-09-11T20:00:24.639Z,17.80
2022-09-11T20:02:53.114Z,17.80
2022-09-11T20:05:28.631Z,17.70
2022-09-11T20:07:57.138Z,17.70
2022-09-11T20:10:32.567Z,17.60
2022-09-11T20:13:07.930Z,17.60
2022-09-11T20:15:45.736Z,17.60
2022-09-11T20:18:14.805Z,17.50
2022-09-11T20:20:49.775Z,17.50
2022-09-11T20:23:18.290Z,17.50
2022-09-11T20:25:53.799Z,17.40
2022-09-11T20:28:22.147Z,17.40
2022-09-11T20:31:00.407Z,17.40
2022-09-11T20:33:29.375Z,17.30
2022-09-11T20:36:04.976Z,17.30
2022-09-11T20:38:33.593Z,17.30
2022-09-11T20:41:12.627Z,17.20
2022-09-11T20:43:41.467Z,17.20
2022-09-11T20:46:18.812Z,17.10
2022-09-11T20:48:50.499Z,17.10
2022-09-11T20:51:26.787Z,17.00
2022-09-11T20:53:57.296Z,17.00
2022-09-11T20:56:32.665Z,17.00
2022-09-11T20:59:01.222Z,17.00
2022-09-11T21:01:42.477Z,16.90
2022-09-11T21:04:12.073Z,16.90
2022-09-11T21:06:46.859Z,16.90
2022-09-11T21:09:15.780Z,16.90
2022-09-11T21:11:50.743Z,16.80
2022-09-11T21:14:27.675Z,16.80
2022-09-11T21:17:07.274Z,16.80
2022-09-11T21:19:36.170Z,16.80
2022-09-11T21:22:11.667Z,16.80
2022-09-11T21:24:43.214Z,16.70
2022-09-11T21:27:18.612Z,16.70
2022-09-11T21:29:47.269Z,16.70
2022-09-11T21:32:23.702Z,16.70
2022-09-11T21:34:52.099Z,16.60
2022-09-11T21:37:27.680Z,16.60
2022-09-11T21:39:56.038Z,16.60
2022-09-11T21:42:30.678Z,16.60
2022-09-11T21:44:59.182Z,16.60
2022-09-11T21:47:35.663Z,16.60
2022-09-11T21:50:06.427Z,16.60
2022-09-11T21:52:41.721Z,16.60
2022-09-11T21:55:11.462Z,16.60
2022-09-11T21:57:46.639Z,16.50
2022-09-11T22:00:16.549Z,16.50
2022-09-11T22:02:52.691Z,16.50
2022-09-11T22:05:21.511Z,16.40
2022-09-11T22:07:56.701Z,16.40
2022-09-11T22:10:25.431Z,16.40
2022-09-11T22:13:01.965Z,16.40
2022-09-11T22:15:46.863Z,16.40
2022-09-11T22:18:17.526Z,16.30
2022-09-11T22:20:53.657Z,16.30
2022-09-11T22:23:22.316Z,16.30
2022-09-11T22:26:04.693Z,16.20
2022-09-11T22:28:33.123Z,16.30
2022-09-11T22:31:10.760Z,16.20
2022-09-11T22:33:42.078Z,16.20
2022-09-11T22:36:18.640Z,16.10
2022-09-11T22:38:47.644Z,16.20
2022-09-11T22:41:22.760Z,16.10
2022-09-11T22:43:51.483Z,16.10
2022-09-11T22:46:27.894Z,16.10
2022-09-11T22:48:58.724Z,16.10
2022-09-11T22:51:35.095Z,16.00
2022-09-11T22:54:04.748Z,16.00
2022-09-11T22:56:39.662Z,16.00
2022-09-11T22:59:09.505Z,16.00
2022-09-11T23:01:44.742Z,16.00
2022-09-11T23:04:14.297Z,15.90
2022-09-11T23:07:05.753Z,15.90
2022-09-11T23:09:34.302Z,15.90
2022-09-11T23:12:09.909Z,15.80
2022-09-11T23:14:45.956Z,15.80
2022-09-11T23:17:20.780Z,15.80
2022-09-11T23:19:50.693Z,15.80
2022-09-11T23:22:27.752Z,15.70
2022-09-11T23:24:56.405Z,15.70
2022-09-11T23:27:31.809Z,15.70
2022-09-11T23:30:02.911Z,15.70
2022-09-11T23:32:41.616Z,15.70
2022-09-11T23:35:12.340Z,15.60
2022-09-11T23:37:47.799Z,15.60
2022-09-11T23:40:16.460Z,15.60
2022-09-11T23:42:51.915Z,15.60
2022-09-11T23:45:20.775Z,15.60
2022-09-11T23:47:57.683Z,15.60
2022-09-11T23:50:29.083Z,15.60
2022-09-11T23:53:04.005Z,15.50
2022-09-11T23:55:32.357Z,15.50
2022-09-11T23:58:08.913Z,15.50
